Time;durP1;ratioP1;P1;durP2;ratioP2;P2;SDS_P1;SDS_P2;PMS_P1;PMS_P2;Temp;Humidity;BMP_temperature;BMP_pressure;BME280_temperature;BME280_humidity;BME280_pressure;Samples;Min_cycle;Max_cycle;Signal;HPM_P1;HPM_P2
2023/12/13 00:00:42;;;;;;;0.40;0.40;;;7.70;99.90;;;;;;5046952;28;20934;-75
2023/12/13 00:03:09;;;;;;;0.57;0.53;;;7.60;99.90;;;;;;5031630;28;20667;-75
2023/12/13 00:05:35;;;;;;;0.60;0.53;;;7.70;99.90;;;;;;5046948;28;20633;-75
2023/12/13 00:08:02;;;;;;;1.63;0.57;;;7.70;99.90;;;;;;5046993;28;20666;-75
2023/12/13 00:10:30;;;;;;;0.50;0.50;;;7.70;99.90;;;;;;5046175;28;20645;-75
2023/12/13 00:12:57;;;;;;;0.40;0.40;;;7.70;99.90;;;;;;5047637;28;20734;-75
2023/12/13 00:15:24;;;;;;;0.60;0.60;;;7.80;99.90;;;;;;5045940;28;20630;-75
2023/12/13 00:17:50;;;;;;;0.50;0.50;;;7.90;99.90;;;;;;5043575;28;20642;-74
2023/12/13 00:20:17;;;;;;;1.70;0.50;;;7.90;99.90;;;;;;5044324;28;20845;-74
2023/12/13 00:22:44;;;;;;;2.33;0.93;;;7.80;99.90;;;;;;5046419;28;20695;-75
2023/12/13 00:25:11;;;;;;;1.23;0.60;;;7.80;99.90;;;;;;5046334;28;20630;-75
2023/12/13 00:27:39;;;;;;;1.23;0.60;;;7.70;99.90;;;;;;5046067;28;20633;-75
2023/12/13 00:30:07;;;;;;;0.87;0.60;;;7.70;99.90;;;;;;5046458;28;20642;-75
2023/12/13 00:32:34;;;;;;;0.70;0.70;;;7.70;99.90;;;;;;5042430;28;20626;-75
2023/12/13 00:35:00;;;;;;;0.73;0.50;;;7.70;99.90;;;;;;5042178;28;20633;-75
2023/12/13 00:37:27;;;;;;;0.57;0.57;;;7.80;99.90;;;;;;5049498;28;21016;-74
2023/12/13 00:39:54;;;;;;;0.50;0.50;;;7.70;99.90;;;;;;5046144;28;21149;-75
2023/12/13 00:42:21;;;;;;;0.87;0.40;;;7.60;99.90;;;;;;5046336;28;21163;-74
2023/12/13 00:44:50;;;;;;;1.80;0.57;;;7.50;99.90;;;;;;5045997;28;21041;-74
2023/12/13 00:47:17;;;;;;;1.17;0.50;;;7.50;99.90;;;;;;5043855;28;20737;-75
2023/12/13 00:49:43;;;;;;;4.80;0.73;;;7.50;99.90;;;;;;5039078;28;20635;-74
2023/12/13 00:52:10;;;;;;;1.53;0.60;;;7.50;99.90;;;;;;5045300;28;20642;-74
2023/12/13 00:54:37;;;;;;;0.93;0.47;;;7.40;99.90;;;;;;5046576;28;20634;-75
2023/12/13 00:57:06;;;;;;;0.40;0.33;;;7.30;99.90;;;;;;5046019;28;20626;-75
2023/12/13 00:59:33;;;;;;;0.70;0.70;;;7.30;99.90;;;;;;5038717;28;20638;-74
2023/12/13 01:02:03;;;;;;;0.97;0.73;;;7.30;99.90;;;;;;5046301;28;20645;-74
2023/12/13 01:04:30;;;;;;;0.63;0.50;;;7.20;99.90;;;;;;5043105;28;20678;-75
2023/12/13 01:06:56;;;;;;;0.77;0.40;;;7.10;99.90;;;;;;5038510;28;20642;-74
2023/12/13 01:09:23;;;;;;;0.60;0.60;;;7.10;99.90;;;;;;5045356;28;20626;-74
2023/12/13 01:11:50;;;;;;;0.80;0.80;;;7.10;99.90;;;;;;5045949;28;20971;-74
2023/12/13 01:14:17;;;;;;;0.60;0.50;;;7.10;99.90;;;;;;5045927;28;20630;-75
2023/12/13 01:16:44;;;;;;;0.40;0.30;;;7.00;99.90;;;;;;5046069;28;20754;-75
2023/12/13 01:19:12;;;;;;;0.67;0.40;;;7.10;99.90;;;;;;5041988;28;20788;-74
2023/12/13 01:21:39;;;;;;;0.47;0.47;;;7.00;99.90;;;;;;5042694;28;20618;-74
2023/12/13 01:24:06;;;;;;;0.40;0.30;;;6.90;99.90;;;;;;5045367;28;20999;-74
2023/12/13 01:26:33;;;;;;;0.53;0.40;;;7.00;99.90;;;;;;5043278;28;20631;-75
2023/12/13 01:29:00;;;;;;;0.70;0.70;;;7.00;99.90;;;;;;5046333;28;20982;-74
2023/12/13 01:31:26;;;;;;;1.58;0.73;;;7.00;99.90;;;;;;5045258;28;21225;-74
2023/12/13 01:33:53;;;;;;;0.30;0.30;;;6.90;99.90;;;;;;5041898;28;20537;-74
2023/12/13 01:36:21;;;;;;;0.60;0.60;;;7.00;99.90;;;;;;5045613;28;20965;-75
2023/12/13 01:38:48;;;;;;;0.40;0.30;;;6.90;99.90;;;;;;5048148;28;20196;-75
2023/12/13 01:41:15;;;;;;;3.45;0.43;;;6.90;99.90;;;;;;5049226;28;20665;-74
2023/12/13 01:43:42;;;;;;;0.40;0.40;;;6.80;99.90;;;;;;5049702;28;20227;-74
2023/12/13 01:46:10;;;;;;;0.47;0.40;;;6.90;99.90;;;;;;5049208;28;20407;-75
2023/12/13 01:48:36;;;;;;;0.50;0.30;;;6.90;99.90;;;;;;5049535;28;20626;-74
2023/12/13 01:51:03;;;;;;;0.30;0.20;;;6.90;99.90;;;;;;5048775;28;20210;-74
2023/12/13 01:53:35;;;;;;;0.93;0.67;;;6.90;99.90;;;;;;5048189;28;20630;-74
2023/12/13 01:56:03;;;;;;;1.03;0.53;;;6.90;99.90;;;;;;5049561;28;20634;-74
2023/12/13 01:58:30;;;;;;;0.37;0.33;;;7.00;99.90;;;;;;5049582;28;21106;-74
2023/12/13 02:00:57;;;;;;;0.70;0.30;;;7.00;99.90;;;;;;5048718;28;20725;-74
2023/12/13 02:03:25;;;;;;;0.63;0.60;;;7.10;99.90;;;;;;5048514;28;20665;-74
2023/12/13 02:05:54;;;;;;;0.40;0.40;;;7.10;99.90;;;;;;5048422;28;20992;-74
2023/12/13 02:08:22;;;;;;;0.40;0.30;;;7.10;99.90;;;;;;5048395;28;20996;-74
2023/12/13 02:10:53;;;;;;;0.30;0.30;;;7.00;99.90;;;;;;5040986;28;20214;-74
2023/12/13 02:13:21;;;;;;;1.13;0.30;;;7.10;99.90;;;;;;5049283;28;20661;-74
2023/12/13 02:15:48;;;;;;;0.60;0.32;;;7.10;99.90;;;;;;5048787;28;20622;-74
2023/12/13 02:18:16;;;;;;;0.57;0.57;;;7.00;99.90;;;;;;5049456;28;20204;-74
2023/12/13 02:20:44;;;;;;;0.30;0.30;;;7.00;99.90;;;;;;5048741;28;20219;-74
2023/12/13 02:23:13;;;;;;;0.60;0.50;;;6.90;99.90;;;;;;5047437;28;20204;-74
2023/12/13 02:25:47;;;;;;;0.40;0.40;;;6.90;99.90;;;;;;5048823;28;21016;-74
2023/12/13 02:28:16;;;;;;;0.70;0.70;;;6.90;99.90;;;;;;5044717;28;21099;-74
2023/12/13 02:30:46;;;;;;;0.98;0.40;;;6.90;99.90;;;;;;5046826;28;20352;-74
2023/12/13 02:33:15;;;;;;;1.10;0.60;;;6.80;99.90;;;;;;5049110;28;20265;-75
2023/12/13 02:35:42;;;;;;;0.40;0.20;;;6.90;99.90;;;;;;5048529;28;20237;-74
2023/12/13 02:38:09;;;;;;;0.65;0.28;;;6.90;99.90;;;;;;5050148;28;20866;-74
2023/12/13 02:40:38;;;;;;;0.40;0.27;;;6.90;99.90;;;;;;5044200;28;20584;-74
2023/12/13 02:43:06;;;;;;;0.60;0.52;;;6.90;99.90;;;;;;5048587;28;20642;-75
2023/12/13 02:45:34;;;;;;;0.40;0.27;;;7.10;99.90;;;;;;5042831;28;20219;-74
2023/12/13 02:48:02;;;;;;;1.93;0.50;;;6.90;99.90;;;;;;5048148;28;21214;-74
2023/12/13 02:50:30;;;;;;;0.50;0.50;;;6.80;99.90;;;;;;5041671;28;20634;-74
2023/12/13 02:52:57;;;;;;;0.63;0.40;;;6.70;99.90;;;;;;5047639;28;21251;-74
2023/12/13 02:55:24;;;;;;;0.73;0.63;;;6.70;99.90;;;;;;5049371;28;20653;-74
2023/12/13 02:57:52;;;;;;;0.30;0.30;;;6.80;99.90;;;;;;5048060;28;20665;-74
2023/12/13 03:00:19;;;;;;;0.93;0.67;;;6.90;99.90;;;;;;5047708;28;20982;-74
2023/12/13 03:02:46;;;;;;;0.63;0.30;;;6.90;99.90;;;;;;5048237;28;20665;-74
2023/12/13 03:05:13;;;;;;;1.53;0.40;;;6.90;99.90;;;;;;5040422;28;20234;-75
2023/12/13 03:07:41;;;;;;;0.80;0.80;;;6.80;99.90;;;;;;5048080;28;20722;-74
2023/12/13 03:10:09;;;;;;;0.30;0.25;;;6.90;99.90;;;;;;5047759;28;20618;-74
2023/12/13 03:12:37;;;;;;;0.50;0.50;;;6.90;99.90;;;;;;5047486;28;20238;-75
2023/12/13 03:15:06;;;;;;;0.40;0.30;;;6.90;99.90;;;;;;5048030;28;20670;-74
2023/12/13 03:17:33;;;;;;;0.40;0.40;;;6.90;99.90;;;;;;5046621;28;20626;-74
2023/12/13 03:20:03;;;;;;;0.70;0.40;;;7.00;99.90;;;;;;5047637;28;20548;-74
2023/12/13 03:22:31;;;;;;;0.60;0.33;;;6.90;99.90;;;;;;5044114;28;20999;-75
2023/12/13 03:24:59;;;;;;;0.40;0.35;;;6.90;99.90;;;;;;5046821;28;20669;-75
2023/12/13 03:27:26;;;;;;;1.75;0.85;;;6.80;99.90;;;;;;5046623;28;20254;-75
2023/12/13 03:29:53;;;;;;;0.40;0.28;;;6.80;99.90;;;;;;5046816;28;20194;-75
2023/12/13 03:32:22;;;;;;;1.07;0.70;;;6.60;99.90;;;;;;5048074;28;20290;-75
2023/12/13 03:34:48;;;;;;;0.50;0.40;;;6.50;99.90;;;;;;5047348;28;20955;-75
2023/12/13 03:37:15;;;;;;;0.30;0.30;;;6.50;99.90;;;;;;5047309;28;20641;-75
2023/12/13 03:39:42;;;;;;;0.80;0.50;;;6.40;99.90;;;;;;5044160;28;20291;-75
2023/12/13 03:42:09;;;;;;;0.40;0.20;;;6.30;99.90;;;;;;5044420;28;20196;-75
2023/12/13 03:44:36;;;;;;;0.90;0.50;;;6.30;99.90;;;;;;5046919;28;20270;-75
2023/12/13 03:47:03;;;;;;;0.30;0.20;;;6.20;99.90;;;;;;5047146;28;20644;-75
2023/12/13 03:49:32;;;;;;;1.67;0.40;;;6.10;99.90;;;;;;5046846;28;20730;-75
2023/12/13 03:51:59;;;;;;;0.60;0.40;;;6.10;99.90;;;;;;5042663;28;20196;-75
2023/12/13 03:54:27;;;;;;;0.50;0.50;;;6.10;99.90;;;;;;5047554;28;20207;-75
2023/12/13 03:56:55;;;;;;;0.52;0.45;;;6.10;99.90;;;;;;5044303;28;20200;-75
2023/12/13 03:59:22;;;;;;;0.37;0.37;;;6.10;99.90;;;;;;5040146;28;20200;-75
2023/12/13 04:01:49;;;;;;;0.60;0.30;;;6.00;99.90;;;;;;5047313;28;20638;-74
2023/12/13 04:04:16;;;;;;;0.63;0.55;;;6.00;99.90;;;;;;5045866;28;20230;-75
2023/12/13 04:06:44;;;;;;;1.05;0.82;;;5.90;99.90;;;;;;5047189;28;20199;-75
2023/12/13 04:09:11;;;;;;;0.70;0.70;;;6.00;99.90;;;;;;5046444;28;20202;-75
2023/12/13 04:11:38;;;;;;;0.47;0.40;;;5.90;99.90;;;;;;5046974;28;20196;-75
2023/12/13 04:14:05;;;;;;;1.25;0.60;;;6.10;99.90;;;;;;5046287;28;20720;-75
2023/12/13 04:16:32;;;;;;;0.40;0.40;;;6.10;99.90;;;;;;5038826;28;20198;-75
2023/12/13 04:18:59;;;;;;;1.03;0.60;;;6.00;99.90;;;;;;5047421;28;20204;-75
2023/12/13 04:21:26;;;;;;;2.55;1.35;;;6.10;99.90;;;;;;5046012;28;20623;-75
2023/12/13 04:23:54;;;;;;;1.02;0.70;;;6.00;99.90;;;;;;5046521;28;20708;-75
2023/12/13 04:26:21;;;;;;;1.05;1.05;;;6.00;99.90;;;;;;5046539;28;20366;-75
2023/12/13 04:28:48;;;;;;;3.10;1.85;;;6.00;99.90;;;;;;5046679;28;20338;-74
2023/12/13 04:31:15;;;;;;;2.65;1.80;;;6.00;99.90;;;;;;5046181;28;20196;-75
2023/12/13 04:33:41;;;;;;;1.83;1.73;;;6.00;99.90;;;;;;5040163;28;20737;-75
2023/12/13 04:36:09;;;;;;;1.33;0.67;;;6.10;99.90;;;;;;5046841;28;20707;-75
2023/12/13 04:38:36;;;;;;;0.95;0.95;;;6.10;99.90;;;;;;5052672;28;20660;-75
2023/12/13 04:41:05;;;;;;;1.05;0.50;;;6.10;99.90;;;;;;5046391;28;20206;-75
2023/12/13 04:43:31;;;;;;;1.00;0.67;;;6.20;99.90;;;;;;5046035;28;20228;-75
2023/12/13 04:45:58;;;;;;;4.30;1.30;;;6.20;99.90;;;;;;5046031;28;20759;-75
2023/12/13 04:48:25;;;;;;;0.50;0.50;;;6.20;99.90;;;;;;5046020;28;20200;-75
2023/12/13 04:50:52;;;;;;;0.60;0.40;;;6.30;99.90;;;;;;5041214;28;20616;-75
2023/12/13 04:53:19;;;;;;;0.47;0.47;;;6.30;99.90;;;;;;5047392;28;20622;-75
2023/12/13 04:55:46;;;;;;;0.55;0.55;;;6.30;99.90;;;;;;5045804;28;20630;-75
2023/12/13 04:58:14;;;;;;;1.33;1.23;;;6.20;99.90;;;;;;5046325;28;20200;-75
2023/12/13 05:00:40;;;;;;;1.02;0.50;;;6.30;99.90;;;;;;5045510;28;20633;-75
2023/12/13 05:03:07;;;;;;;0.45;0.40;;;6.30;99.90;;;;;;5042434;28;20279;-75
2023/12/13 05:05:34;;;;;;;0.57;0.57;;;6.30;99.90;;;;;;5045981;28;20223;-75
2023/12/13 05:08:01;;;;;;;2.70;0.80;;;6.30;99.90;;;;;;5043985;28;20738;-75
2023/12/13 05:10:27;;;;;;;2.45;1.00;;;6.40;99.90;;;;;;5045328;28;20633;-76
2023/12/13 05:12:54;;;;;;;0.60;0.50;;;6.20;99.90;;;;;;5046365;28;20203;-75
2023/12/13 05:15:23;;;;;;;2.45;0.82;;;6.30;99.90;;;;;;5048406;28;20626;-75
2023/12/13 05:17:49;;;;;;;0.53;0.53;;;6.30;99.90;;;;;;5050263;28;20210;-75
2023/12/13 05:20:16;;;;;;;1.60;0.67;;;6.30;99.90;;;;;;5049684;28;20983;-75
2023/12/13 05:22:43;;;;;;;1.20;0.90;;;6.40;99.90;;;;;;5050342;28;20631;-75
2023/12/13 05:25:10;;;;;;;0.60;0.60;;;6.40;99.90;;;;;;5045805;28;20659;-75
2023/12/13 05:27:37;;;;;;;0.63;0.53;;;6.40;99.90;;;;;;5049023;28;20626;-75
2023/12/13 05:30:04;;;;;;;2.38;0.65;;;6.40;99.90;;;;;;5048185;28;20628;-75
2023/12/13 05:32:32;;;;;;;0.60;0.50;;;6.50;99.90;;;;;;5050094;28;20495;-75
2023/12/13 05:34:59;;;;;;;1.00;0.67;;;6.50;99.90;;;;;;5049854;28;20637;-75
2023/12/13 05:37:26;;;;;;;0.98;0.52;;;6.40;99.90;;;;;;5056996;28;20622;-75
2023/12/13 05:39:53;;;;;;;0.60;0.57;;;6.40;99.90;;;;;;5049644;28;20204;-75
2023/12/13 05:42:19;;;;;;;0.65;0.65;;;6.50;99.90;;;;;;5044403;28;20469;-75
2023/12/13 05:44:46;;;;;;;0.50;0.33;;;6.30;99.90;;;;;;5048800;28;20310;-75
2023/12/13 05:47:14;;;;;;;2.35;0.75;;;6.50;99.90;;;;;;5049430;28;20653;-75
2023/12/13 05:49:42;;;;;;;0.55;0.55;;;6.40;99.90;;;;;;5049248;28;20467;-74
2023/12/13 05:52:09;;;;;;;0.60;0.60;;;6.40;99.90;;;;;;5049832;28;20202;-75
2023/12/13 05:54:36;;;;;;;1.03;0.60;;;6.40;99.90;;;;;;5046912;28;20618;-75
2023/12/13 05:57:04;;;;;;;0.57;0.57;;;6.40;99.90;;;;;;5049465;28;20633;-75
2023/12/13 05:59:31;;;;;;;0.43;0.43;;;6.40;99.90;;;;;;5045282;28;20642;-75
2023/12/13 06:01:57;;;;;;;0.83;0.83;;;6.40;99.90;;;;;;5048887;28;20249;-75
2023/12/13 06:04:24;;;;;;;0.40;0.40;;;6.40;99.90;;;;;;5049383;28;20662;-75
2023/12/13 06:06:53;;;;;;;0.70;0.60;;;6.30;99.90;;;;;;5049343;28;20721;-75
2023/12/13 06:09:20;;;;;;;0.50;0.50;;;6.40;99.90;;;;;;5048817;28;21195;-75
2023/12/13 06:11:47;;;;;;;1.07;0.60;;;6.40;99.90;;;;;;5048951;28;20203;-75
2023/12/13 06:14:14;;;;;;;1.57;0.77;;;6.40;99.90;;;;;;5048634;28;20622;-75
2023/12/13 06:16:41;;;;;;;1.40;0.87;;;6.30;99.90;;;;;;5044950;28;20653;-75
2023/12/13 06:19:07;;;;;;;1.00;1.00;;;6.40;99.90;;;;;;5046006;28;20637;-75
2023/12/13 06:21:34;;;;;;;1.10;1.00;;;6.40;99.90;;;;;;5049104;28;20625;-75
2023/12/13 06:24:03;;;;;;;0.90;0.67;;;6.50;99.90;;;;;;5048811;28;21010;-74
2023/12/13 06:26:30;;;;;;;0.83;0.70;;;6.50;99.90;;;;;;5047122;28;20669;-74
2023/12/13 06:28:57;;;;;;;4.73;1.10;;;6.50;99.90;;;;;;5049248;28;20648;-74
2023/12/13 06:31:24;;;;;;;1.10;1.00;;;6.50;99.90;;;;;;5042073;28;20986;-75
2023/12/13 06:33:51;;;;;;;0.53;0.53;;;6.60;99.90;;;;;;5048380;28;20626;-74
2023/12/13 06:36:18;;;;;;;0.50;0.50;;;6.70;99.90;;;;;;5048739;28;20622;-74
2023/12/13 06:38:46;;;;;;;0.60;0.60;;;6.70;99.90;;;;;;5055388;28;20633;-74
2023/12/13 06:41:14;;;;;;;5.20;1.43;;;6.60;99.90;;;;;;5047958;28;21225;-74
2023/12/13 06:43:41;;;;;;;1.23;1.13;;;6.70;99.90;;;;;;5048640;28;20618;-74
2023/12/13 06:46:08;;;;;;;0.87;0.83;;;6.70;99.90;;;;;;5045601;28;20691;-74
2023/12/13 06:48:34;;;;;;;1.87;1.00;;;6.70;99.90;;;;;;5044953;28;20742;-74
2023/12/13 06:51:01;;;;;;;2.13;1.73;;;6.80;99.90;;;;;;5048120;28;20632;-74
2023/12/13 06:53:28;;;;;;;3.07;1.63;;;6.80;99.90;;;;;;5049022;28;20724;-73
2023/12/13 06:55:55;;;;;;;1.90;1.10;;;6.80;99.90;;;;;;5048252;28;20623;-74
2023/12/13 06:58:23;;;;;;;2.00;1.03;;;6.80;99.90;;;;;;5048356;28;20674;-74
2023/12/13 07:00:50;;;;;;;2.87;1.53;;;6.80;99.90;;;;;;5047829;28;20952;-74
2023/12/13 07:03:17;;;;;;;0.93;0.60;;;6.80;99.90;;;;;;5045625;28;20807;-75
2023/12/13 07:05:44;;;;;;;0.80;0.80;;;6.90;99.90;;;;;;5048065;28;20693;-75
2023/12/13 07:08:12;;;;;;;0.50;0.50;;;6.90;99.90;;;;;;5047890;28;20687;-74
2023/12/13 07:10:39;;;;;;;0.90;0.90;;;6.90;99.90;;;;;;5047634;28;20627;-75
2023/12/13 07:13:06;;;;;;;1.00;0.70;;;6.90;99.90;;;;;;5048326;28;20627;-75
2023/12/13 07:15:34;;;;;;;1.10;1.00;;;6.80;99.90;;;;;;5047522;28;20618;-76
2023/12/13 07:18:01;;;;;;;2.47;1.90;;;6.80;99.90;;;;;;5047858;28;20840;-76
2023/12/13 07:20:30;;;;;;;1.03;0.90;;;6.80;99.90;;;;;;5044114;28;20684;-75
2023/12/13 07:22:57;;;;;;;2.37;1.13;;;6.90;99.90;;;;;;5044952;28;20634;-76
2023/12/13 07:25:24;;;;;;;1.43;1.20;;;6.90;99.90;;;;;;5047529;28;20709;-75
2023/12/13 07:27:51;;;;;;;1.70;1.33;;;7.00;99.90;;;;;;5047914;28;20644;-75
2023/12/13 07:30:18;;;;;;;0.80;0.80;;;6.90;99.90;;;;;;5047133;28;20999;-75
2023/12/13 07:32:46;;;;;;;0.70;0.70;;;7.00;99.90;;;;;;5047580;28;20636;-74
2023/12/13 07:35:13;;;;;;;1.00;0.90;;;7.00;99.90;;;;;;5046955;28;21272;-75
2023/12/13 07:37:40;;;;;;;1.10;0.93;;;7.00;99.90;;;;;;5037342;28;20633;-75
2023/12/13 07:40:08;;;;;;;3.03;1.33;;;6.90;99.90;;;;;;5039228;28;20638;-73
2023/12/13 07:42:35;;;;;;;1.50;1.23;;;7.00;99.90;;;;;;5046886;28;20623;-73
2023/12/13 07:45:02;;;;;;;0.60;0.60;;;7.00;99.90;;;;;;5046965;28;20664;-72
2023/12/13 07:47:29;;;;;;;3.30;1.20;;;7.00;99.90;;;;;;5046236;28;20680;-74
2023/12/13 07:49:57;;;;;;;1.30;1.20;;;7.00;99.90;;;;;;5046991;28;20730;-74
2023/12/13 07:52:24;;;;;;;0.63;0.63;;;7.00;99.90;;;;;;5038456;28;21201;-74
2023/12/13 07:54:52;;;;;;;2.87;1.40;;;7.00;99.90;;;;;;5047339;28;20630;-74
2023/12/13 07:57:21;;;;;;;0.97;0.87;;;7.00;99.90;;;;;;5047549;28;20638;-74
2023/12/13 07:59:47;;;;;;;1.27;1.17;;;7.10;99.90;;;;;;5046442;28;20631;-74
2023/12/13 08:02:14;;;;;;;1.10;0.90;;;7.10;99.90;;;;;;5046413;28;20621;-74
2023/12/13 08:04:40;;;;;;;0.70;0.70;;;7.10;99.90;;;;;;5047435;28;20627;-74
2023/12/13 08:07:08;;;;;;;1.00;0.90;;;7.10;99.90;;;;;;5045951;28;20733;-74
2023/12/13 08:09:35;;;;;;;2.40;1.20;;;7.20;99.90;;;;;;5046571;28;20623;-74
2023/12/13 08:12:02;;;;;;;1.20;1.10;;;7.20;99.90;;;;;;5046971;28;21067;-74
2023/12/13 08:14:30;;;;;;;1.40;1.30;;;7.20;99.90;;;;;;5046854;28;20733;-75
2023/12/13 08:16:57;;;;;;;2.70;1.20;;;7.10;99.90;;;;;;5047781;28;20734;-72
2023/12/13 08:19:24;;;;;;;1.07;1.00;;;7.20;99.90;;;;;;5046376;28;20626;-76
2023/12/13 08:21:52;;;;;;;1.60;1.50;;;7.20;99.90;;;;;;5046581;28;21155;-77
2023/12/13 08:24:20;;;;;;;1.20;1.03;;;7.20;99.90;;;;;;5041561;28;20642;-76
2023/12/13 08:26:47;;;;;;;1.60;1.50;;;7.20;99.90;;;;;;5041281;28;20672;-77
2023/12/13 08:29:14;;;;;;;1.10;1.10;;;7.20;99.90;;;;;;5045814;28;20641;-77
2023/12/13 08:31:41;;;;;;;1.50;1.40;;;7.20;99.90;;;;;;5047038;28;20628;-76
2023/12/13 08:34:07;;;;;;;1.33;1.23;;;7.20;99.90;;;;;;5046351;28;20627;-75
2023/12/13 08:36:34;;;;;;;1.57;1.47;;;7.30;99.90;;;;;;5048756;28;20629;-75
2023/12/13 08:39:02;;;;;;;0.90;0.90;;;7.30;99.90;;;;;;5051912;28;20634;-74
2023/12/13 08:41:30;;;;;;;0.73;0.73;;;7.20;99.90;;;;;;5043145;28;20991;-75
2023/12/13 08:43:57;;;;;;;0.80;0.80;;;7.30;99.90;;;;;;5041823;28;20950;-77
2023/12/13 08:46:24;;;;;;;3.90;0.63;;;7.30;99.90;;;;;;5044624;28;20694;-75
2023/12/13 08:48:51;;;;;;;0.80;0.80;;;7.30;99.90;;;;;;5044618;28;20622;-75
2023/12/13 08:51:18;;;;;;;1.50;1.40;;;7.30;99.90;;;;;;5046357;28;20665;-75
2023/12/13 08:53:48;;;;;;;1.00;0.90;;;7.40;99.90;;;;;;5046185;28;20653;-75
2023/12/13 08:56:15;;;;;;;0.80;0.80;;;7.30;99.90;;;;;;5043797;28;20996;-75
2023/12/13 08:58:44;;;;;;;1.50;1.40;;;7.40;99.90;;;;;;5043947;28;20618;-75
2023/12/13 09:01:11;;;;;;;1.07;0.97;;;7.30;99.90;;;;;;5045279;28;20669;-76
2023/12/13 09:03:37;;;;;;;1.43;0.83;;;7.30;99.90;;;;;;5046182;28;20673;-75
2023/12/13 09:06:06;;;;;;;0.70;0.70;;;7.40;99.90;;;;;;5046087;28;20655;-76
2023/12/13 09:08:33;;;;;;;1.00;1.00;;;7.40;99.90;;;;;;5046429;28;20623;-76
2023/12/13 09:11:00;;;;;;;1.57;1.47;;;7.50;99.90;;;;;;5045493;28;21214;-76
2023/12/13 09:13:27;;;;;;;1.57;1.00;;;7.50;99.90;;;;;;5045434;28;20645;-76
2023/12/13 09:15:55;;;;;;;2.67;1.00;;;7.60;99.90;;;;;;5046393;28;20627;-76
2023/12/13 09:18:21;;;;;;;2.57;0.97;;;7.60;99.90;;;;;;5044183;28;20637;-76
2023/12/13 09:20:48;;;;;;;0.80;0.70;;;7.70;99.90;;;;;;5046070;28;20749;-76
2023/12/13 09:23:21;;;;;;;3.27;1.23;;;7.70;99.90;;;;;;5045955;28;21482;-74
2023/12/13 09:25:48;;;;;;;2.07;1.20;;;7.70;99.90;;;;;;5045858;28;20671;-74
2023/12/13 09:28:15;;;;;;;3.80;1.17;;;7.80;99.90;;;;;;5045076;28;20622;-75
2023/12/13 09:30:42;;;;;;;1.50;1.40;;;7.80;99.90;;;;;;5042668;28;20633;-75
2023/12/13 09:33:11;;;;;;;1.90;1.40;;;7.80;99.90;;;;;;5046236;28;20729;-75
2023/12/13 09:35:38;;;;;;;1.13;1.10;;;7.90;99.90;;;;;;5037595;28;20623;-75
2023/12/13 09:38:05;;;;;;;2.00;1.20;;;8.00;99.90;;;;;;5053858;28;20626;-75
2023/12/13 09:40:32;;;;;;;1.10;1.00;;;8.10;99.90;;;;;;5045577;28;20646;-75
2023/12/13 09:43:01;;;;;;;1.53;0.60;;;8.10;99.90;;;;;;5046445;28;20655;-75
2023/12/13 09:45:29;;;;;;;1.77;1.00;;;8.10;99.90;;;;;;5044838;28;20932;-75
2023/12/13 09:47:56;;;;;;;6.83;1.67;;;8.10;99.90;;;;;;5040710;28;20653;-75
2023/12/13 09:50:26;;;;;;;1.10;0.90;;;8.10;99.90;;;;;;5044880;28;20663;-75
2023/12/13 09:52:55;;;;;;;0.80;0.77;;;8.20;99.90;;;;;;5046100;28;20625;-75
2023/12/13 09:55:22;;;;;;;0.93;0.90;;;8.20;99.90;;;;;;5047264;28;20629;-75
2023/12/13 09:57:49;;;;;;;0.93;0.87;;;8.10;99.90;;;;;;5045894;28;20733;-75
2023/12/13 10:00:17;;;;;;;1.30;1.20;;;8.20;99.90;;;;;;5045673;28;20634;-75
2023/12/13 10:02:46;;;;;;;2.27;1.97;;;8.20;99.90;;;;;;5043774;28;21016;-75
2023/12/13 10:05:17;;;;;;;1.23;1.10;;;8.20;99.90;;;;;;5041731;28;20630;-75
2023/12/13 10:07:45;;;;;;;1.20;1.07;;;8.20;99.90;;;;;;5049989;28;20665;-75
2023/12/13 10:10:12;;;;;;;1.10;1.00;;;8.20;99.90;;;;;;5045737;28;20699;-75
2023/12/13 10:12:39;;;;;;;1.40;0.80;;;8.10;99.90;;;;;;5044602;28;21202;-74
2023/12/13 10:15:10;;;;;;;1.00;0.90;;;8.10;99.90;;;;;;5048823;28;20631;-75
2023/12/13 10:17:37;;;;;;;1.17;1.07;;;8.10;99.90;;;;;;5048702;28;20697;-75
2023/12/13 10:20:06;;;;;;;1.13;1.00;;;8.10;99.90;;;;;;5049170;28;21225;-75
2023/12/13 10:22:33;;;;;;;1.53;1.30;;;8.20;99.90;;;;;;5043594;28;20630;-75
2023/12/13 10:25:03;;;;;;;0.87;0.80;;;8.30;99.90;;;;;;5045462;28;20635;-75
2023/12/13 10:27:29;;;;;;;2.10;1.10;;;8.20;99.90;;;;;;5047720;28;20670;-75
2023/12/13 10:29:56;;;;;;;1.43;1.33;;;8.10;99.90;;;;;;5048779;28;20963;-75
2023/12/13 10:32:23;;;;;;;1.00;0.83;;;8.20;99.90;;;;;;5044532;28;21064;-75
2023/12/13 10:34:50;;;;;;;1.33;1.23;;;8.20;99.90;;;;;;5036974;28;20638;-75
2023/12/13 10:37:19;;;;;;;0.97;0.97;;;8.30;99.90;;;;;;5056426;28;20950;-74
2023/12/13 10:39:48;;;;;;;1.33;1.20;;;8.30;99.90;;;;;;5043890;28;21241;-74
2023/12/13 10:42:18;;;;;;;1.47;1.37;;;8.40;99.90;;;;;;5048907;28;20641;-75
2023/12/13 10:44:47;;;;;;;1.83;1.40;;;8.40;99.90;;;;;;5041291;28;20983;-75
2023/12/13 10:47:15;;;;;;;1.50;0.87;;;8.40;99.90;;;;;;5048276;28;20760;-74
2023/12/13 10:49:43;;;;;;;2.77;2.47;;;8.40;99.90;;;;;;5048255;28;20622;-75
2023/12/13 10:52:10;;;;;;;1.50;0.93;;;8.40;99.90;;;;;;5048905;28;20633;-75
2023/12/13 10:54:38;;;;;;;1.00;1.00;;;8.40;99.90;;;;;;5050086;28;21255;-75
2023/12/13 10:57:05;;;;;;;1.77;1.27;;;8.30;99.90;;;;;;5043725;28;20639;-75
2023/12/13 10:59:36;;;;;;;1.00;1.00;;;8.30;99.90;;;;;;5044594;28;20627;-76
2023/12/13 11:02:05;;;;;;;0.90;0.77;;;8.30;99.90;;;;;;5040651;28;20627;-75
2023/12/13 11:04:32;;;;;;;1.03;1.00;;;8.50;99.90;;;;;;5048190;28;20640;-75
2023/12/13 11:07:03;;;;;;;1.40;1.20;;;8.50;99.90;;;;;;5048073;28;20662;-76
2023/12/13 11:09:31;;;;;;;1.33;1.03;;;8.50;99.90;;;;;;5048249;28;20647;-75
2023/12/13 11:11:59;;;;;;;4.20;0.80;;;8.60;99.90;;;;;;5044409;28;21001;-75
2023/12/13 11:14:26;;;;;;;2.50;1.10;;;8.70;99.90;;;;;;5048229;28;20746;-75
2023/12/13 11:16:58;;;;;;;0.70;0.60;;;8.70;99.90;;;;;;5047911;28;20619;-75
2023/12/13 11:19:26;;;;;;;1.90;0.80;;;8.60;99.90;;;;;;5048347;28;20990;-75
2023/12/13 11:21:53;;;;;;;0.83;0.80;;;8.70;99.90;;;;;;5048132;28;20739;-75
2023/12/13 11:24:25;;;;;;;1.07;0.87;;;8.70;99.90;;;;;;5045273;28;20942;-75
2023/12/13 11:26:53;;;;;;;1.00;0.90;;;8.70;99.90;;;;;;5048102;28;20744;-75
2023/12/13 11:29:21;;;;;;;0.97;0.77;;;8.80;99.90;;;;;;5047273;28;20636;-75
2023/12/13 11:31:53;;;;;;;1.10;1.03;;;8.90;99.90;;;;;;5047828;28;21038;-75
2023/12/13 11:34:32;;;;;;;1.03;1.03;;;8.90;99.90;;;;;;5047423;28;20634;-75
2023/12/13 11:37:00;;;;;;;1.83;1.20;;;8.90;99.90;;;;;;5053692;28;20691;-75
2023/12/13 11:39:27;;;;;;;3.30;1.33;;;9.00;99.90;;;;;;5047931;28;21248;-75
2023/12/13 11:41:54;;;;;;;1.37;1.27;;;9.00;99.90;;;;;;5047852;28;20644;-75
2023/12/13 11:44:21;;;;;;;0.90;0.90;;;9.00;99.90;;;;;;5041401;28;21060;-75
2023/12/13 11:46:54;;;;;;;1.77;0.83;;;9.10;99.90;;;;;;5047254;28;20683;-75
2023/12/13 11:49:23;;;;;;;0.77;0.77;;;9.20;99.90;;;;;;5046743;28;20630;-75
2023/12/13 11:51:49;;;;;;;1.00;0.80;;;9.30;99.90;;;;;;5047955;28;21118;-75
2023/12/13 11:54:16;;;;;;;2.07;1.40;;;9.30;99.90;;;;;;5048529;28;20634;-75
2023/12/13 11:56:43;;;;;;;1.27;1.17;;;9.40;99.90;;;;;;5046850;28;20984;-75
2023/12/13 11:59:10;;;;;;;1.77;1.43;;;9.30;99.90;;;;;;5042955;28;20637;-75
2023/12/13 12:01:37;;;;;;;0.83;0.83;;;9.30;99.90;;;;;;5046859;28;20984;-75
2023/12/13 12:04:05;;;;;;;0.83;0.70;;;9.40;99.90;;;;;;5042827;28;20741;-75
2023/12/13 12:06:33;;;;;;;1.27;1.17;;;9.40;99.90;;;;;;5047260;28;20661;-76
2023/12/13 12:09:01;;;;;;;1.17;1.00;;;9.50;99.90;;;;;;5047145;28;20636;-75
2023/12/13 12:11:28;;;;;;;1.37;1.27;;;9.70;99.90;;;;;;5046760;28;20636;-75
2023/12/13 12:13:56;;;;;;;0.97;0.90;;;9.70;99.90;;;;;;5041591;28;20825;-75
2023/12/13 12:16:23;;;;;;;1.20;1.00;;;9.80;99.90;;;;;;5043293;28;20997;-75
2023/12/13 12:18:50;;;;;;;1.57;1.40;;;9.80;99.90;;;;;;5047248;28;20615;-75
2023/12/13 12:21:16;;;;;;;1.40;0.83;;;9.90;99.90;;;;;;5046782;28;20814;-76
2023/12/13 12:23:45;;;;;;;1.23;0.77;;;10.00;99.90;;;;;;5046224;28;20641;-75
2023/12/13 12:26:13;;;;;;;1.17;1.00;;;10.10;99.90;;;;;;5046763;28;20636;-75
2023/12/13 12:28:42;;;;;;;0.90;0.90;;;9.90;99.90;;;;;;5040256;28;20636;-75
2023/12/13 12:31:09;;;;;;;4.37;1.00;;;9.90;99.90;;;;;;5042543;28;20627;-75
2023/12/13 12:33:36;;;;;;;0.90;0.73;;;9.80;99.90;;;;;;5038459;28;20627;-75
2023/12/13 12:36:03;;;;;;;1.77;1.67;;;9.90;99.90;;;;;;5046831;28;20629;-75
2023/12/13 12:38:30;;;;;;;1.40;1.30;;;9.80;99.90;;;;;;5054359;28;20641;-75
2023/12/13 12:40:58;;;;;;;0.70;0.60;;;9.90;99.90;;;;;;5046464;28;20648;-75
2023/12/13 12:43:25;;;;;;;0.70;0.70;;;10.00;99.90;;;;;;5045992;28;20630;-75
2023/12/13 12:45:52;;;;;;;2.50;1.23;;;10.00;99.90;;;;;;5046615;28;20622;-75
2023/12/13 12:48:19;;;;;;;0.80;0.80;;;10.00;99.90;;;;;;5045813;28;21115;-75
2023/12/13 12:50:46;;;;;;;1.20;1.10;;;10.00;99.90;;;;;;5044945;28;20642;-75
2023/12/13 12:53:13;;;;;;;1.30;1.00;;;10.00;99.90;;;;;;5048156;28;20625;-76
2023/12/13 12:55:41;;;;;;;0.70;0.63;;;10.00;99.90;;;;;;5043861;28;20633;-75
2023/12/13 12:58:09;;;;;;;4.93;1.40;;;10.00;99.90;;;;;;5046542;28;20845;-75